createdAt,value
2024-05-09T00:00:30.424Z,11.70
2024-05-09T00:01:23.572Z,13.70
2024-05-09T00:02:23.692Z,13.90
2024-05-09T00:03:23.558Z,12.20
2024-05-09T00:04:23.503Z,13.10
2024-05-09T00:05:23.639Z,13.70
2024-05-09T00:06:23.445Z,13.00
2024-05-09T00:07:23.475Z,14.60
2024-05-09T00:08:23.444Z,14.30
2024-05-09T00:09:23.389Z,14.20
2024-05-09T00:10:32.624Z,15.50
2024-05-09T00:11:23.539Z,14.70
2024-05-09T00:12:23.455Z,14.10
2024-05-09T00:13:23.354Z,13.60
2024-05-09T00:14:23.375Z,16.10
2024-05-09T00:15:23.346Z,16.60
2024-05-09T00:16:23.334Z,15.50
2024-05-09T00:17:23.470Z,14.40
2024-05-09T00:18:23.534Z,14.40
2024-05-09T00:19:23.356Z,12.90
2024-05-09T00:20:28.583Z,15.50
2024-05-09T00:21:23.266Z,15.40
2024-05-09T00:22:23.278Z,14.00
2024-05-09T00:23:23.314Z,16.00
2024-05-09T00:24:23.213Z,12.70
2024-05-09T00:25:23.228Z,13.90
2024-05-09T00:26:23.225Z,13.80
2024-05-09T00:27:23.175Z,16.30
2024-05-09T00:28:23.154Z,15.00
2024-05-09T00:29:23.229Z,13.70
2024-05-09T00:30:31.632Z,13.40
2024-05-09T00:31:23.133Z,16.20
2024-05-09T00:32:23.254Z,14.50
2024-05-09T00:33:23.351Z,13.20
2024-05-09T00:34:23.212Z,13.40
2024-05-09T00:35:23.301Z,15.10
2024-05-09T00:36:23.052Z,13.90
2024-05-09T00:37:23.043Z,13.50
2024-05-09T00:38:23.057Z,14.90
2024-05-09T00:39:23.005Z,14.10
2024-05-09T00:40:31.090Z,14.30
2024-05-09T00:41:23.032Z,13.30
2024-05-09T00:42:22.978Z,15.20
2024-05-09T00:43:23.018Z,16.30
2024-05-09T00:44:23.055Z,14.50
2024-05-09T00:45:22.914Z,14.90
2024-05-09T00:46:22.907Z,12.20
2024-05-09T00:47:23.189Z,11.10
2024-05-09T00:48:22.957Z,13.50
2024-05-09T00:49:23.079Z,12.60
2024-05-09T00:50:29.896Z,12.70
2024-05-09T00:51:22.879Z,14.00
2024-05-09T00:52:22.855Z,12.90
2024-05-09T00:53:22.871Z,14.30
2024-05-09T00:54:22.816Z,12.30
2024-05-09T00:55:22.805Z,14.60
2024-05-09T00:56:22.808Z,13.00
2024-05-09T00:57:22.810Z,12.00
2024-05-09T00:58:22.774Z,13.20
2024-05-09T00:59:22.839Z,13.00
2024-05-09T01:00:31.392Z,13.00
2024-05-09T01:01:22.824Z,13.20
2024-05-09T01:02:22.819Z,14.50
2024-05-09T01:03:23.128Z,12.70
2024-05-09T01:04:22.743Z,16.60
2024-05-09T01:05:22.703Z,13.80
2024-05-09T01:06:22.664Z,14.10
2024-05-09T01:07:22.646Z,14.30
2024-05-09T01:08:22.707Z,13.70
2024-05-09T01:09:22.628Z,12.90
2024-05-09T01:10:28.178Z,13.70
2024-05-09T01:11:22.807Z,14.10
2024-05-09T01:12:22.639Z,11.30
2024-05-09T01:13:22.602Z,13.90
2024-05-09T01:14:22.596Z,12.30
2024-05-09T01:15:22.554Z,15.20
2024-05-09T01:16:22.516Z,12.80
2024-05-09T01:17:22.612Z,15.10
2024-05-09T01:18:22.632Z,13.20
2024-05-09T01:19:22.585Z,14.50
2024-05-09T01:20:31.829Z,12.60
2024-05-09T01:21:22.465Z,12.60
2024-05-09T01:22:22.432Z,12.60
2024-05-09T01:23:22.541Z,14.30
2024-05-09T01:24:22.418Z,13.50
2024-05-09T01:25:22.421Z,11.90
2024-05-09T01:26:22.454Z,12.00
2024-05-09T01:27:22.364Z,13.50
2024-05-09T01:28:22.357Z,12.20
2024-05-09T01:29:22.450Z,12.40
2024-05-09T01:30:31.220Z,11.80
2024-05-09T01:31:22.351Z,13.80
2024-05-09T01:32:22.543Z,12.60
2024-05-09T01:33:22.415Z,13.10
2024-05-09T01:34:22.362Z,12.40
2024-05-09T01:35:22.341Z,12.80
2024-05-09T01:36:22.253Z,12.50
2024-05-09T01:37:22.287Z,14.70
2024-05-09T01:38:22.311Z,14.60
2024-05-09T01:39:22.220Z,11.90
2024-05-09T01:40:29.078Z,14.10
2024-05-09T01:41:22.291Z,14.20
2024-05-09T01:42:22.221Z,12.20
2024-05-09T01:43:22.183Z,16.00
2024-05-09T01:44:22.195Z,14.80
2024-05-09T01:45:22.167Z,12.30
2024-05-09T01:46:22.139Z,13.30
2024-05-09T01:47:22.364Z,14.20
2024-05-09T01:48:22.222Z,12.40
2024-05-09T01:49:22.224Z,14.20
2024-05-09T01:50:34.152Z,12.70
2024-05-09T01:51:22.106Z,12.60
2024-05-09T01:52:22.042Z,15.70
2024-05-09T01:53:22.104Z,15.20
2024-05-09T01:54:22.067Z,15.10
2024-05-09T01:55:22.020Z,13.00
2024-05-09T01:56:22.029Z,14.70
2024-05-09T01:57:21.975Z,15.10
2024-05-09T01:58:21.950Z,13.70
2024-05-09T01:59:21.953Z,15.00
2024-05-09T02:00:30.525Z,14.10
2024-05-09T02:01:21.973Z,13.70
2024-05-09T02:02:21.997Z,12.80
2024-05-09T02:03:22.102Z,12.80
2024-05-09T02:04:22.129Z,13.60
2024-05-09T02:05:22.082Z,15.70
2024-05-09T02:06:21.857Z,14.10
2024-05-09T02:07:21.832Z,15.50
2024-05-09T02:08:22.235Z,13.70
2024-05-09T02:09:21.842Z,15.50
2024-05-09T02:10:26.513Z,13.10
2024-05-09T02:11:21.890Z,14.20
2024-05-09T02:12:21.897Z,14.90
2024-05-09T02:13:21.771Z,14.80
2024-05-09T02:14:21.826Z,12.50
2024-05-09T02:15:21.757Z,12.70
2024-05-09T02:16:21.728Z,11.50
2024-05-09T02:17:21.843Z,10.80
2024-05-09T02:18:21.844Z,11.50
2024-05-09T02:19:21.889Z,10.80
2024-05-09T02:20:30.271Z,11.20
2024-05-09T02:21:21.702Z,10.80
2024-05-09T02:22:21.651Z,13.20
2024-05-09T02:23:21.752Z,13.50
2024-05-09T02:24:21.618Z,14.40
2024-05-09T02:25:21.608Z,12.60
2024-05-09T02:26:21.691Z,13.20
2024-05-09T02:27:21.599Z,14.80
2024-05-09T02:28:21.564Z,13.00
2024-05-09T02:29:21.661Z,13.70
2024-05-09T02:30:30.004Z,12.80
2024-05-09T02:31:21.550Z,13.00
2024-05-09T02:32:21.621Z,14.40
2024-05-09T02:33:21.854Z,13.60
2024-05-09T02:34:21.642Z,12.00
2024-05-09T02:35:21.567Z,14.50
2024-05-09T02:36:21.492Z,14.30
2024-05-09T02:37:21.454Z,13.40
2024-05-09T02:38:21.536Z,11.80
2024-05-09T02:39:21.428Z,13.00
2024-05-09T02:40:25.766Z,13.20
2024-05-09T02:41:21.487Z,12.50
2024-05-09T02:42:21.373Z,13.60
2024-05-09T02:43:21.392Z,14.00
2024-05-09T02:44:21.410Z,14.30
2024-05-09T02:45:21.350Z,12.00
2024-05-09T02:46:21.324Z,11.50
2024-05-09T02:47:21.580Z,12.10
2024-05-09T02:48:21.608Z,12.40
2024-05-09T02:49:21.539Z,12.20
2024-05-09T02:50:29.749Z,13.30
2024-05-09T02:51:21.307Z,11.80
2024-05-09T02:52:21.269Z,11.30
2024-05-09T02:53:21.255Z,12.40
2024-05-09T02:54:21.237Z,12.50
2024-05-09T02:55:21.198Z,12.20
2024-05-09T02:56:21.334Z,12.00
2024-05-09T02:57:21.188Z,13.40
2024-05-09T02:58:21.165Z,12.90
2024-05-09T02:59:21.434Z,10.90
2024-05-09T03:00:26.466Z,11.40
2024-05-09T03:01:21.232Z,10.70
2024-05-09T03:02:21.408Z,13.80
2024-05-09T03:03:21.231Z,11.50
2024-05-09T03:04:21.208Z,10.90
2024-05-09T03:05:21.211Z,15.80
2024-05-09T03:06:21.165Z,9.60
2024-05-09T03:07:21.188Z,11.30
2024-05-09T03:08:21.097Z,8.00
2024-05-09T03:09:21.029Z,6.10
2024-05-09T03:10:25.616Z,6.20
2024-05-09T03:11:21.230Z,6.10
2024-05-09T03:12:21.050Z,5.90
2024-05-09T03:13:20.980Z,5.10
2024-05-09T03:14:20.993Z,5.60
2024-05-09T03:15:20.953Z,5.70
2024-05-09T03:16:20.983Z,7.60
2024-05-09T03:17:21.027Z,5.60
2024-05-09T03:18:21.048Z,7.40
2024-05-09T03:19:20.933Z,6.80
2024-05-09T03:20:24.298Z,7.90
2024-05-09T03:21:20.922Z,10.90
2024-05-09T03:22:20.882Z,13.90
2024-05-09T03:23:20.898Z,10.20
2024-05-09T03:24:20.815Z,13.00
2024-05-09T03:25:20.838Z,11.30
2024-05-09T03:26:20.826Z,11.40
2024-05-09T03:27:20.817Z,13.40
2024-05-09T03:28:20.785Z,13.40
2024-05-09T03:29:20.813Z,14.00
2024-05-09T03:30:29.621Z,13.80
2024-05-09T03:31:20.788Z,13.90
2024-05-09T03:32:20.937Z,16.70
2024-05-09T03:33:21.323Z,17.00
2024-05-09T03:34:20.820Z,16.40
2024-05-09T03:35:20.714Z,15.40
2024-05-09T03:36:20.677Z,18.70
2024-05-09T03:37:20.659Z,17.80
2024-05-09T03:38:20.681Z,17.70
2024-05-09T03:39:20.690Z,18.20
2024-05-09T03:40:24.004Z,18.30
2024-05-09T03:41:20.681Z,18.00
2024-05-09T03:42:20.640Z,18.30
2024-05-09T03:43:20.614Z,20.30
2024-05-09T03:44:20.589Z,18.00
2024-05-09T03:45:20.551Z,13.70
2024-05-09T03:46:20.563Z,13.00
2024-05-09T03:47:20.706Z,11.50
2024-05-09T03:48:20.705Z,10.60
2024-05-09T03:49:20.588Z,9.70
2024-05-09T03:50:26.353Z,10.50
2024-05-09T03:51:20.523Z,11.60
2024-05-09T03:52:20.461Z,11.30
2024-05-09T03:53:20.499Z,10.80
2024-05-09T03:54:20.434Z,13.10
2024-05-09T03:55:20.420Z,11.80
2024-05-09T03:56:20.520Z,13.70
2024-05-09T03:57:20.429Z,12.80
2024-05-09T03:58:20.377Z,14.90
2024-05-09T03:59:20.461Z,16.20
2024-05-09T04:00:30.425Z,14.30
2024-05-09T04:01:20.419Z,14.20
2024-05-09T04:02:20.390Z,13.20
2024-05-09T04:03:20.654Z,16.20
2024-05-09T04:04:20.374Z,11.90
2024-05-09T04:05:20.345Z,12.10
2024-05-09T04:06:20.292Z,14.60
2024-05-09T04:07:20.282Z,14.20
2024-05-09T04:08:20.318Z,11.90
2024-05-09T04:09:20.244Z,13.70
2024-05-09T04:10:27.762Z,12.20
2024-05-09T04:11:20.332Z,17.10
2024-05-09T04:12:20.283Z,15.40
2024-05-09T04:13:20.239Z,15.80
2024-05-09T04:14:20.300Z,15.40
2024-05-09T04:15:20.176Z,13.50
2024-05-09T04:16:20.142Z,13.80
2024-05-09T04:17:20.160Z,16.40
2024-05-09T04:18:20.196Z,13.30
2024-05-09T04:19:20.414Z,14.70
2024-05-09T04:20:29.316Z,14.70
2024-05-09T04:21:20.090Z,14.90
2024-05-09T04:22:20.065Z,12.90
2024-05-09T04:23:20.172Z,13.10
2024-05-09T04:24:20.075Z,14.30
2024-05-09T04:25:20.022Z,14.90
2024-05-09T04:26:20.035Z,15.30
2024-05-09T04:27:20.042Z,14.60
2024-05-09T04:28:20.008Z,14.10
2024-05-09T04:29:20.050Z,16.20
2024-05-09T04:30:26.475Z,16.00
2024-05-09T04:31:19.956Z,16.70
2024-05-09T04:32:20.046Z,15.50
2024-05-09T04:33:20.389Z,17.20
2024-05-09T04:34:20.006Z,15.80
2024-05-09T04:35:19.960Z,14.70
2024-05-09T04:36:19.930Z,15.00
2024-05-09T04:37:19.874Z,15.00
2024-05-09T04:38:19.962Z,16.00
2024-05-09T04:39:19.873Z,15.70
2024-05-09T04:40:28.115Z,14.10
2024-05-09T04:41:19.874Z,17.10
2024-05-09T04:42:19.818Z,13.60
2024-05-09T04:43:19.790Z,16.00
2024-05-09T04:44:19.838Z,14.00
2024-05-09T04:45:19.811Z,17.30
2024-05-09T04:46:19.779Z,17.80
2024-05-09T04:47:20.017Z,19.60
2024-05-09T04:48:19.957Z,21.40
2024-05-09T04:49:19.949Z,21.00
2024-05-09T04:50:29.319Z,21.80
2024-05-09T04:51:19.736Z,20.00
2024-05-09T04:52:19.677Z,20.10
2024-05-09T04:53:19.770Z,22.90
2024-05-09T04:54:30.006Z,21.10
2024-05-09T04:55:19.652Z,19.60
2024-05-09T04:56:19.621Z,21.40
2024-05-09T04:57:19.618Z,20.60
2024-05-09T04:58:19.638Z,19.80
2024-05-09T04:59:19.619Z,22.40
2024-05-09T05:00:28.456Z,20.40
2024-05-09T05:01:19.591Z,23.00
2024-05-09T05:02:19.778Z,21.40
2024-05-09T05:03:19.780Z,22.20
2024-05-09T05:04:19.622Z,23.40
2024-05-09T05:05:19.577Z,19.50
2024-05-09T05:06:19.546Z,20.10
2024-05-09T05:07:19.501Z,21.50
2024-05-09T05:08:19.851Z,22.00
2024-05-09T05:09:19.452Z,19.10
2024-05-09T05:10:25.448Z,20.50
2024-05-09T05:11:19.518Z,21.80
2024-05-09T05:12:19.514Z,21.60
2024-05-09T05:13:20.922Z,21.10
2024-05-09T05:14:19.460Z,20.70
2024-05-09T05:15:19.381Z,21.40
2024-05-09T05:16:19.420Z,22.00
2024-05-09T05:17:19.494Z,19.80
2024-05-09T05:18:19.777Z,25.00
2024-05-09T05:19:19.438Z,22.60
2024-05-09T05:20:27.389Z,20.30
2024-05-09T05:21:19.564Z,19.60
2024-05-09T05:22:19.302Z,22.00
2024-05-09T05:23:19.370Z,19.30
2024-05-09T05:24:19.266Z,22.10
2024-05-09T05:25:19.265Z,20.80
2024-05-09T05:26:19.303Z,20.30
2024-05-09T05:27:19.245Z,20.60
2024-05-09T05:28:19.215Z,21.80
2024-05-09T05:29:20.958Z,21.00
2024-05-09T05:30:25.002Z,20.40
2024-05-09T05:31:19.250Z,20.80
2024-05-09T05:32:19.283Z,20.30
2024-05-09T05:33:19.837Z,21.00
2024-05-09T05:34:19.161Z,20.20
2024-05-09T05:35:19.159Z,19.10
2024-05-09T05:36:19.100Z,20.60
2024-05-09T05:37:19.094Z,20.20
2024-05-09T05:38:21.256Z,23.60
2024-05-09T05:39:19.108Z,20.10
2024-05-09T05:40:28.132Z,21.70
2024-05-09T05:41:19.126Z,25.10
2024-05-09T05:42:19.038Z,21.10
2024-05-09T05:43:19.034Z,21.00
2024-05-09T05:44:19.075Z,22.40
2024-05-09T05:45:19.019Z,21.80
2024-05-09T05:46:18.980Z,19.70
2024-05-09T05:47:19.093Z,19.80
2024-05-09T05:48:19.331Z,22.10
2024-05-09T05:49:19.014Z,21.50
2024-05-09T05:50:27.346Z,21.30
2024-05-09T05:51:19.147Z,22.80
2024-05-09T05:52:18.896Z,23.70
2024-05-09T05:53:18.925Z,21.50
2024-05-09T05:54:18.921Z,18.40
2024-05-09T05:55:18.872Z,20.80
2024-05-09T05:56:18.919Z,21.20
2024-05-09T05:57:18.831Z,21.00
2024-05-09T05:58:18.811Z,20.40
2024-05-09T05:59:19.039Z,20.30
2024-05-09T06:00:29.002Z,23.30
2024-05-09T06:01:18.862Z,18.20
2024-05-09T06:02:18.917Z,22.00
2024-05-09T06:03:18.778Z,19.60
2024-05-09T06:04:18.770Z,20.80
2024-05-09T06:05:18.821Z,20.60
2024-05-09T06:06:18.733Z,17.60
2024-05-09T06:07:18.697Z,18.00
2024-05-09T06:08:18.763Z,17.50
2024-05-09T06:09:18.679Z,20.10
2024-05-09T06:10:25.210Z,20.40
2024-05-09T06:11:18.752Z,18.50
2024-05-09T06:12:18.744Z,21.90
2024-05-09T06:13:18.657Z,16.90
2024-05-09T06:14:18.670Z,20.60
2024-05-09T06:15:18.606Z,19.00
2024-05-09T06:16:18.612Z,16.70
2024-05-09T06:17:18.665Z,17.00
2024-05-09T06:18:18.779Z,19.00
2024-05-09T06:19:18.642Z,19.00
2024-05-09T06:20:23.924Z,17.10
2024-05-09T06:21:18.589Z,18.20
2024-05-09T06:22:18.505Z,17.30
2024-05-09T06:23:18.664Z,18.00
2024-05-09T06:24:18.492Z,17.20
2024-05-09T06:25:18.463Z,17.80
2024-05-09T06:26:18.524Z,17.60
2024-05-09T06:27:18.448Z,16.60
2024-05-09T06:28:18.422Z,19.00
2024-05-09T06:29:18.489Z,20.60
2024-05-09T06:30:25.474Z,15.20
2024-05-09T06:31:18.417Z,15.40
2024-05-09T06:32:18.485Z,17.90
2024-05-09T06:33:18.736Z,17.90
2024-05-09T06:34:18.645Z,16.10
2024-05-09T06:35:18.437Z,19.00
2024-05-09T06:36:18.312Z,16.20
2024-05-09T06:37:18.299Z,16.40
2024-05-09T06:38:18.353Z,20.30
2024-05-09T06:39:18.355Z,15.80
2024-05-09T06:40:25.441Z,16.60
2024-05-09T06:41:18.342Z,14.90
2024-05-09T06:42:18.286Z,15.90
2024-05-09T06:43:19.558Z,15.90
2024-05-09T06:44:18.286Z,15.70
2024-05-09T06:45:18.213Z,16.60
2024-05-09T06:46:18.183Z,15.80
2024-05-09T06:47:18.310Z,15.30
2024-05-09T06:48:18.400Z,14.20
2024-05-09T06:49:18.315Z,16.00
2024-05-09T06:50:23.873Z,16.20
2024-05-09T06:51:18.180Z,16.30
2024-05-09T06:52:18.106Z,15.60
2024-05-09T06:53:18.152Z,13.90
2024-05-09T06:54:18.105Z,15.50
2024-05-09T06:55:18.108Z,14.40
2024-05-09T06:56:18.112Z,13.10
2024-05-09T06:57:18.057Z,13.00
2024-05-09T06:58:18.050Z,12.90
2024-05-09T06:59:18.173Z,13.30
2024-05-09T07:00:26.858Z,12.30
2024-05-09T07:01:18.056Z,13.10
2024-05-09T07:02:18.047Z,14.50
2024-05-09T07:03:19.341Z,13.50
2024-05-09T07:04:18.169Z,12.90
2024-05-09T07:05:18.026Z,14.10
2024-05-09T07:06:17.988Z,12.70
2024-05-09T07:07:17.907Z,12.30
2024-05-09T07:08:18.076Z,12.80
2024-05-09T07:09:17.911Z,12.20
2024-05-09T07:10:25.416Z,12.00
2024-05-09T07:11:18.006Z,12.90
2024-05-09T07:12:18.027Z,11.40
2024-05-09T07:13:17.999Z,11.70
2024-05-09T07:14:17.830Z,11.90
2024-05-09T07:15:17.807Z,13.70
2024-05-09T07:16:17.791Z,12.80
2024-05-09T07:17:17.904Z,13.30
2024-05-09T07:18:19.012Z,15.40
2024-05-09T07:19:17.898Z,13.10
2024-05-09T07:20:23.683Z,13.60
2024-05-09T07:21:17.866Z,12.40
2024-05-09T07:22:17.732Z,11.90
2024-05-09T07:23:17.875Z,11.50
2024-05-09T07:24:17.696Z,12.50
2024-05-09T07:25:17.692Z,11.30
2024-05-09T07:26:17.797Z,9.60
2024-05-09T07:27:17.658Z,10.70
2024-05-09T07:28:17.759Z,10.10
2024-05-09T07:29:17.681Z,10.20
2024-05-09T07:30:23.539Z,9.90
2024-05-09T07:31:17.633Z,12.60
2024-05-09T07:32:17.737Z,9.80
2024-05-09T07:33:17.984Z,10.80
2024-05-09T07:34:17.822Z,10.20
2024-05-09T07:35:17.594Z,10.70
2024-05-09T07:36:17.550Z,9.30
2024-05-09T07:37:17.535Z,10.50
2024-05-09T07:38:17.603Z,9.60
2024-05-09T07:39:17.507Z,13.20
2024-05-09T07:40:27.603Z,8.20
2024-05-09T07:41:17.508Z,10.60
2024-05-09T07:42:17.449Z,9.20
2024-05-09T07:43:17.458Z,9.50
2024-05-09T07:44:17.549Z,9.70
2024-05-09T07:45:33.167Z,10.20
2024-05-09T07:47:14.246Z,9.80
2024-05-09T07:50:34.141Z,8.80
2024-05-09T07:53:32.437Z,10.30
2024-05-09T07:53:49.394Z,12.50
2024-05-09T07:54:00.495Z,9.40
2024-05-09T07:54:56.087Z,10.60
2024-05-09T07:55:56.465Z,9.70
2024-05-09T07:56:56.060Z,8.30
2024-05-09T07:57:55.923Z,8.20
2024-05-09T07:58:56.196Z,10.20
2024-05-09T07:59:55.817Z,7.40
2024-05-09T08:00:55.953Z,9.30
2024-05-09T08:01:55.869Z,11.20
2024-05-09T08:02:55.805Z,9.40
2024-05-09T08:03:56.031Z,10.50
2024-05-09T08:04:55.874Z,9.30
2024-05-09T08:05:55.735Z,10.00
2024-05-09T08:06:55.798Z,9.20
2024-05-09T08:07:55.704Z,8.80
2024-05-09T08:08:56.014Z,8.40
2024-05-09T08:09:55.681Z,8.70
2024-05-09T08:10:55.740Z,8.70
2024-05-09T08:11:55.720Z,7.70
2024-05-09T08:12:55.683Z,9.80
2024-05-09T08:13:55.616Z,8.30
2024-05-09T08:14:55.633Z,9.30
2024-05-09T08:15:55.709Z,7.80
2024-05-09T08:16:55.591Z,11.00
2024-05-09T08:17:55.743Z,9.80
2024-05-09T08:18:55.627Z,8.20
2024-05-09T08:19:55.536Z,6.90
2024-05-09T08:20:55.589Z,8.60
2024-05-09T08:21:55.599Z,6.90
2024-05-09T08:22:55.502Z,9.20
2024-05-09T08:23:55.495Z,9.60
2024-05-09T08:24:55.574Z,9.70
2024-05-09T08:25:55.508Z,6.40
2024-05-09T08:26:55.451Z,10.40
2024-05-09T08:27:55.508Z,8.30
2024-05-09T08:28:55.500Z,7.90
2024-05-09T08:29:55.486Z,7.90
2024-05-09T08:30:55.503Z,9.10
2024-05-09T08:31:55.411Z,10.50
2024-05-09T08:32:55.414Z,9.60
2024-05-09T08:33:55.509Z,8.00
2024-05-09T08:34:55.393Z,8.50
2024-05-09T08:35:55.361Z,7.70
2024-05-09T08:36:56.289Z,7.30
2024-05-09T08:37:55.341Z,6.80
2024-05-09T08:38:55.375Z,9.20
2024-05-09T08:39:55.288Z,8.50
2024-05-09T08:40:55.322Z,6.20
2024-05-09T08:41:55.267Z,10.40
2024-05-09T08:42:55.292Z,6.80
2024-05-09T08:43:55.238Z,8.90
2024-05-09T08:44:55.247Z,8.80
2024-05-09T08:45:55.286Z,8.70
2024-05-09T08:46:55.211Z,6.80
2024-05-09T08:47:55.254Z,6.50
2024-05-09T08:48:55.398Z,8.20
2024-05-09T08:49:55.296Z,5.90
2024-05-09T08:50:55.154Z,6.20
2024-05-09T08:51:55.172Z,6.10
2024-05-09T08:52:55.112Z,7.20
2024-05-09T08:53:55.079Z,6.60
2024-05-09T08:54:55.186Z,6.10
2024-05-09T08:55:55.109Z,7.00
2024-05-09T08:56:55.092Z,9.00
2024-05-09T08:57:55.154Z,6.20
2024-05-09T08:58:55.021Z,6.60
2024-05-09T08:59:55.026Z,4.50
2024-05-09T09:00:55.127Z,7.50
2024-05-09T09:01:55.064Z,7.90
2024-05-09T09:02:55.042Z,9.40
2024-05-09T09:03:55.243Z,6.70
2024-05-09T09:04:55.021Z,8.50
2024-05-09T09:05:54.931Z,5.50
2024-05-09T09:06:57.687Z,6.20
2024-05-09T09:07:55.130Z,5.70
2024-05-09T09:08:54.902Z,8.00
2024-05-09T09:09:54.926Z,5.30
2024-05-09T09:10:54.974Z,7.30
2024-05-09T09:11:54.890Z,7.60
2024-05-09T09:12:54.883Z,7.80
2024-05-09T09:13:54.858Z,7.80
2024-05-09T09:14:54.820Z,5.20
2024-05-09T09:15:54.891Z,7.50
2024-05-09T09:16:54.829Z,6.10
2024-05-09T09:17:54.833Z,8.20
2024-05-09T09:18:55.006Z,9.10
2024-05-09T09:19:54.827Z,4.40
2024-05-09T09:20:54.802Z,7.20
2024-05-09T09:21:54.858Z,9.20
2024-05-09T09:22:54.694Z,7.60
2024-05-09T09:23:54.714Z,6.10
2024-05-09T09:24:54.687Z,7.10
2024-05-09T09:25:54.663Z,6.70
2024-05-09T09:26:54.799Z,6.10
2024-05-09T09:27:54.727Z,5.20
2024-05-09T09:28:55.116Z,6.20
2024-05-09T09:29:54.612Z,5.30
2024-05-09T09:30:54.632Z,7.30
2024-05-09T09:31:54.601Z,9.40
2024-05-09T09:32:54.705Z,4.40
2024-05-09T09:33:54.799Z,8.30
2024-05-09T09:34:54.638Z,5.90
2024-05-09T09:35:54.553Z,5.10
2024-05-09T09:36:54.570Z,4.70
2024-05-09T09:37:54.509Z,7.40
2024-05-09T09:38:54.502Z,5.80
2024-05-09T09:39:54.569Z,5.20
2024-05-09T09:40:54.543Z,3.30
2024-05-09T09:41:54.476Z,4.90
2024-05-09T09:42:54.520Z,8.30
2024-05-09T09:43:54.437Z,4.40
2024-05-09T09:45:02.208Z,4.70
2024-05-09T09:45:54.435Z,4.90
2024-05-09T09:46:54.449Z,5.80
2024-05-09T09:47:54.511Z,7.30
2024-05-09T09:48:54.486Z,5.10
2024-05-09T09:49:54.460Z,4.60
2024-05-09T09:50:54.344Z,5.10
2024-05-09T09:51:54.376Z,5.60
2024-05-09T09:52:54.319Z,6.70
2024-05-09T09:53:54.293Z,11.10
2024-05-09T09:54:54.418Z,4.70
2024-05-09T09:55:54.274Z,5.80
2024-05-09T09:56:54.267Z,7.00
2024-05-09T09:57:54.307Z,6.40
2024-05-09T09:58:54.278Z,4.60
2024-05-09T09:59:54.221Z,4.30
2024-05-09T10:00:54.386Z,6.90
2024-05-09T10:01:54.297Z,4.70
2024-05-09T10:02:54.218Z,4.40
2024-05-09T10:03:54.346Z,3.90
2024-05-09T10:04:54.274Z,5.20
2024-05-09T10:05:54.274Z,5.30
2024-05-09T10:06:54.218Z,7.30
2024-05-09T10:07:54.142Z,6.80
2024-05-09T10:08:54.095Z,6.50
2024-05-09T10:09:54.165Z,5.00
2024-05-09T10:10:54.301Z,4.20
2024-05-09T10:11:59.885Z,5.80
2024-05-09T10:12:54.136Z,6.00
2024-05-09T10:13:54.044Z,3.30
2024-05-09T10:14:54.058Z,5.10
2024-05-09T10:15:54.615Z,3.10
2024-05-09T10:16:53.997Z,3.70
2024-05-09T10:17:54.106Z,4.80
2024-05-09T10:18:54.146Z,3.60
2024-05-09T10:19:54.116Z,6.80
2024-05-09T10:20:53.960Z,6.10
2024-05-09T10:21:53.972Z,4.60
2024-05-09T10:22:53.939Z,3.40
2024-05-09T10:23:53.923Z,4.90
2024-05-09T10:24:54.054Z,4.90
2024-05-09T10:25:53.894Z,5.30
2024-05-09T10:26:53.884Z,4.40
2024-05-09T10:27:54.075Z,6.30
2024-05-09T10:28:53.851Z,2.80
2024-05-09T10:29:53.826Z,5.50
2024-05-09T10:30:53.908Z,4.00
2024-05-09T10:31:53.869Z,3.60
2024-05-09T10:32:53.910Z,3.60
2024-05-09T10:33:53.988Z,2.90
2024-05-09T10:34:53.799Z,5.90
2024-05-09T10:35:53.756Z,3.40
2024-05-09T10:36:53.858Z,5.20
2024-05-09T10:37:53.730Z,5.80
2024-05-09T10:38:53.721Z,2.90
2024-05-09T10:39:53.809Z,4.20
2024-05-09T10:40:53.726Z,8.10
2024-05-09T10:41:53.677Z,4.00
2024-05-09T10:42:53.656Z,5.40
2024-05-09T10:43:53.671Z,3.70
2024-05-09T10:44:53.642Z,3.90
2024-05-09T10:45:53.670Z,6.50
2024-05-09T10:46:53.623Z,2.30
2024-05-09T10:47:53.754Z,3.90
2024-05-09T10:48:53.774Z,3.10
2024-05-09T10:49:53.746Z,3.60
2024-05-09T10:50:53.555Z,4.20
2024-05-09T10:51:53.674Z,4.10
2024-05-09T10:52:53.577Z,3.50
2024-05-09T10:53:53.530Z,5.50
2024-05-09T10:54:53.566Z,3.60
2024-05-09T10:55:53.485Z,5.80
2024-05-09T10:56:53.503Z,3.40
2024-05-09T10:57:53.677Z,3.40
2024-05-09T10:58:53.445Z,2.70
2024-05-09T10:59:53.418Z,5.10
2024-05-09T11:00:53.573Z,8.40
2024-05-09T11:01:53.523Z,3.50
2024-05-09T11:02:53.405Z,3.10
2024-05-09T11:03:53.648Z,6.40
2024-05-09T11:04:53.495Z,4.50
2024-05-09T11:05:53.500Z,4.60
2024-05-09T11:06:53.385Z,4.20
2024-05-09T11:07:53.324Z,4.40
2024-05-09T11:08:53.349Z,5.80
2024-05-09T11:09:53.343Z,4.00
2024-05-09T11:10:53.535Z,4.40
2024-05-09T11:11:53.331Z,3.30
2024-05-09T11:12:53.304Z,5.70
2024-05-09T11:13:53.286Z,3.90
2024-05-09T11:14:53.288Z,6.10
2024-05-09T11:15:53.254Z,3.90
2024-05-09T11:16:53.230Z,8.80
2024-05-09T11:17:53.344Z,6.20
2024-05-09T11:18:53.322Z,4.50
2024-05-09T11:19:53.209Z,3.70
2024-05-09T11:20:53.232Z,3.70
2024-05-09T11:21:53.227Z,4.20
2024-05-09T11:22:53.129Z,4.10
2024-05-09T11:23:53.267Z,3.30
2024-05-09T11:24:53.304Z,2.70
2024-05-09T11:25:53.094Z,4.90
2024-05-09T11:26:53.100Z,3.00
2024-05-09T11:27:53.152Z,5.00
2024-05-09T11:28:53.072Z,6.70
2024-05-09T11:29:53.105Z,3.80
2024-05-09T11:30:53.024Z,3.40
2024-05-09T11:31:53.201Z,2.20
2024-05-09T11:32:53.195Z,5.20
2024-05-09T11:33:53.200Z,3.80
2024-05-09T11:34:52.985Z,7.20
2024-05-09T11:35:53.034Z,3.40
2024-05-09T11:36:53.100Z,4.20
2024-05-09T11:37:52.952Z,5.80
2024-05-09T11:38:52.986Z,3.50
2024-05-09T11:39:52.942Z,3.70
2024-05-09T11:40:52.940Z,4.00
2024-05-09T11:41:52.952Z,5.00
2024-05-09T11:42:53.587Z,4.00
2024-05-09T11:43:52.879Z,3.50
2024-05-09T11:44:52.883Z,3.70
2024-05-09T11:45:52.875Z,2.70
2024-05-09T11:46:52.834Z,4.10
2024-05-09T11:47:52.929Z,2.30
2024-05-09T11:48:52.949Z,2.50
2024-05-09T11:49:52.853Z,3.40
2024-05-09T11:50:52.823Z,4.90
2024-05-09T11:51:52.789Z,3.40
2024-05-09T11:52:52.756Z,4.00
2024-05-09T11:53:52.740Z,4.00
2024-05-09T11:54:53.617Z,2.50
2024-05-09T11:55:52.711Z,3.20
2024-05-09T11:56:52.741Z,6.10
2024-05-09T11:57:52.713Z,4.80
2024-05-09T11:58:52.713Z,4.10
2024-05-09T11:59:52.643Z,3.30
2024-05-09T12:00:52.801Z,4.10
2024-05-09T12:01:52.748Z,4.50
2024-05-09T12:02:52.747Z,2.80
2024-05-09T12:03:52.806Z,3.70
2024-05-09T12:04:52.659Z,3.20
2024-05-09T12:05:52.596Z,2.10
2024-05-09T12:06:52.678Z,3.90
2024-05-09T12:07:52.560Z,4.70
2024-05-09T12:08:52.577Z,6.30
2024-05-09T12:09:52.574Z,5.10
2024-05-09T12:10:52.719Z,5.80
2024-05-09T12:11:52.564Z,4.50
2024-05-09T12:12:52.528Z,3.90
2024-05-09T12:13:52.505Z,3.50
2024-05-09T12:14:52.464Z,5.50
2024-05-09T12:15:52.530Z,4.80
2024-05-09T12:16:52.488Z,3.80
2024-05-09T12:17:52.461Z,3.20
2024-05-09T12:18:52.617Z,4.60
2024-05-09T12:19:52.394Z,5.80
2024-05-09T12:20:52.379Z,5.40
2024-05-09T12:21:52.385Z,5.80
2024-05-09T12:22:52.354Z,3.80
2024-05-09T12:23:52.384Z,4.70
2024-05-09T12:24:52.376Z,3.40
2024-05-09T12:25:52.311Z,3.80
2024-05-09T12:26:52.291Z,4.30
2024-05-09T12:27:52.330Z,4.70
2024-05-09T12:28:52.334Z,4.30
2024-05-09T12:29:52.273Z,4.00
2024-05-09T12:30:52.294Z,2.90
2024-05-09T12:31:52.277Z,3.50
2024-05-09T12:32:52.236Z,2.80
2024-05-09T12:33:52.389Z,5.30
2024-05-09T12:34:52.183Z,4.30
2024-05-09T12:35:52.207Z,4.90
2024-05-09T12:36:52.193Z,4.10
2024-05-09T12:37:52.222Z,4.40
2024-05-09T12:38:52.215Z,2.30
2024-05-09T12:39:52.260Z,5.00
2024-05-09T12:40:52.370Z,3.60
2024-05-09T12:41:52.151Z,4.00
2024-05-09T12:42:52.125Z,4.30
2024-05-09T12:43:52.084Z,4.70
2024-05-09T12:44:52.052Z,3.50
2024-05-09T12:45:52.122Z,3.50
2024-05-09T12:46:52.072Z,3.30
2024-05-09T12:47:52.202Z,4.50
2024-05-09T12:48:52.348Z,2.60
2024-05-09T12:49:52.063Z,3.10
2024-05-09T12:50:52.072Z,6.70
2024-05-09T12:51:52.009Z,2.10
2024-05-09T12:52:51.955Z,3.10
2024-05-09T12:53:51.966Z,4.10
2024-05-09T12:54:51.985Z,2.50
2024-05-09T12:55:56.936Z,5.70
2024-05-09T12:56:51.922Z,3.00
2024-05-09T12:57:51.951Z,4.40
2024-05-09T12:58:51.885Z,2.90
2024-05-09T12:59:51.875Z,3.80
2024-05-09T13:00:52.483Z,2.80
2024-05-09T13:01:52.061Z,5.10
2024-05-09T13:02:51.872Z,4.00
2024-05-09T13:03:52.136Z,5.80
2024-05-09T13:04:51.888Z,3.10
2024-05-09T13:05:52.006Z,5.20
2024-05-09T13:06:51.816Z,4.90